createdAt,value
2023-04-06T00:01:00.502Z,16.42
2023-04-06T00:03:27.545Z,16.90
2023-04-06T00:05:54.554Z,15.70
2023-04-06T00:08:22.489Z,15.60
2023-04-06T00:10:49.434Z,16.98
2023-04-06T00:13:16.391Z,13.60
2023-04-06T00:15:43.367Z,15.07
2023-04-06T00:18:10.473Z,14.10
2023-04-06T00:20:37.606Z,13.98
2023-04-06T00:23:04.742Z,10.30
2023-04-06T00:25:31.631Z,12.23
2023-04-06T00:27:58.583Z,13.73
2023-04-06T00:30:25.654Z,13.38
2023-04-06T00:32:52.574Z,11.13
2023-04-06T00:35:19.641Z,11.85
2023-04-06T00:37:49.155Z,12.35
2023-04-06T00:40:16.602Z,11.45
2023-04-06T00:42:43.649Z,11.70
2023-04-06T00:45:11.350Z,10.68
2023-04-06T00:47:38.575Z,11.35
2023-04-06T00:50:06.068Z,12.50
2023-04-06T00:52:33.105Z,11.45
2023-04-06T00:54:59.969Z,10.35
2023-04-06T00:57:26.991Z,10.57
2023-04-06T00:59:54.533Z,10.40
2023-04-06T01:02:21.625Z,9.85
2023-04-06T01:04:48.605Z,11.50
2023-04-06T01:07:15.613Z,10.02
2023-04-06T01:09:43.085Z,14.60
2023-04-06T01:12:10.188Z,14.65
2023-04-06T01:14:37.182Z,10.82
2023-04-06T01:17:04.164Z,11.63
2023-04-06T01:19:31.019Z,12.35
2023-04-06T01:21:57.970Z,12.15
2023-04-06T01:24:24.901Z,10.30
2023-04-06T01:26:51.807Z,11.23
2023-04-06T01:29:18.769Z,14.20
2023-04-06T01:31:45.781Z,10.82
2023-04-06T01:34:12.804Z,11.35
2023-04-06T01:36:39.786Z,16.48
2023-04-06T01:39:06.899Z,14.55
2023-04-06T01:41:33.946Z,10.55
2023-04-06T01:44:01.116Z,11.90
2023-04-06T01:46:28.160Z,12.73
2023-04-06T01:48:55.032Z,15.75
2023-04-06T01:51:22.092Z,16.05
2023-04-06T01:53:50.338Z,14.70
2023-04-06T01:56:17.328Z,10.23
2023-04-06T01:58:44.262Z,16.40
2023-04-06T02:01:11.170Z,18.63
2023-04-06T02:03:38.137Z,11.25
2023-04-06T02:06:05.168Z,13.48
2023-04-06T02:08:32.287Z,13.43
2023-04-06T02:10:59.195Z,9.80
2023-04-06T02:13:26.357Z,11.00
2023-04-06T02:15:53.389Z,11.23
2023-04-06T02:18:20.539Z,12.55
2023-04-06T02:20:47.473Z,16.02
2023-04-06T02:23:14.521Z,13.13
2023-04-06T02:25:41.997Z,11.63
2023-04-06T02:28:10.081Z,13.68
2023-04-06T02:30:37.003Z,12.98
2023-04-06T02:33:04.194Z,12.98
2023-04-06T02:35:32.199Z,12.07
2023-04-06T02:37:59.227Z,14.60
2023-04-06T02:40:26.259Z,18.17
2023-04-06T02:42:53.265Z,10.15
2023-04-06T02:45:20.340Z,13.10
2023-04-06T02:47:47.301Z,12.95
2023-04-06T02:50:14.313Z,13.00
2023-04-06T02:52:41.228Z,11.20
2023-04-06T02:55:08.869Z,18.17
2023-04-06T02:57:35.782Z,16.42
2023-04-06T03:00:02.806Z,15.30
2023-04-06T03:02:29.778Z,14.93
2023-04-06T03:04:56.766Z,14.43
2023-04-06T03:07:23.703Z,17.55
2023-04-06T03:09:50.814Z,11.80
2023-04-06T03:12:17.821Z,8.70
2023-04-06T03:14:44.640Z,12.05
2023-04-06T03:17:11.610Z,9.90
2023-04-06T03:19:38.454Z,10.80
2023-04-06T03:22:05.424Z,12.85
2023-04-06T03:24:32.407Z,9.80
2023-04-06T03:26:59.268Z,11.98
2023-04-06T03:29:26.389Z,11.85
2023-04-06T03:31:53.235Z,10.50
2023-04-06T03:34:20.103Z,13.30
2023-04-06T03:36:48.412Z,16.52
2023-04-06T03:39:20.881Z,13.38
2023-04-06T03:41:47.763Z,14.45
2023-04-06T03:44:14.713Z,14.98
2023-04-06T03:46:41.623Z,11.32
2023-04-06T03:49:08.832Z,9.05
2023-04-06T03:51:35.873Z,9.65
2023-04-06T03:54:02.799Z,7.68
2023-04-06T03:56:29.667Z,7.65
2023-04-06T03:58:56.836Z,8.32
2023-04-06T04:01:23.874Z,8.68
2023-04-06T04:03:51.929Z,6.93
2023-04-06T04:06:19.027Z,6.68
2023-04-06T04:08:46.073Z,7.80
2023-04-06T04:11:12.966Z,6.05
2023-04-06T04:13:39.896Z,7.60
2023-04-06T04:16:06.886Z,6.25
2023-04-06T04:18:33.877Z,9.10
2023-04-06T04:21:01.258Z,12.82
2023-04-06T04:23:28.161Z,6.10
2023-04-06T04:25:55.050Z,11.68
2023-04-06T04:28:21.963Z,8.32
2023-04-06T04:30:48.890Z,9.18
2023-04-06T04:33:15.910Z,10.70
2023-04-06T04:35:43.060Z,13.07
2023-04-06T04:38:09.931Z,18.50
2023-04-06T04:40:36.804Z,26.38
2023-04-06T04:43:03.756Z,22.63
2023-04-06T04:45:30.740Z,19.88
2023-04-06T04:47:57.734Z,19.05
2023-04-06T04:50:24.625Z,15.30
2023-04-06T04:52:51.608Z,17.10
2023-04-06T04:55:18.822Z,20.15
2023-04-06T04:57:45.631Z,18.38
2023-04-06T05:00:13.224Z,16.13
2023-04-06T05:02:40.659Z,11.07
2023-04-06T05:05:08.358Z,13.38
2023-04-06T05:07:35.472Z,18.75
2023-04-06T05:10:02.345Z,15.45
2023-04-06T05:12:30.333Z,83.50
2023-04-06T05:14:57.275Z,147.77
2023-04-06T05:17:24.219Z,170.25
2023-04-06T05:19:51.268Z,173.98
2023-04-06T05:22:18.764Z,185.27
2023-04-06T05:24:45.900Z,84.53
2023-04-06T05:27:12.856Z,100.72
2023-04-06T05:29:39.884Z,65.85
2023-04-06T05:32:07.580Z,46.42
2023-04-06T05:34:34.593Z,55.45
2023-04-06T05:37:01.628Z,73.88
2023-04-06T05:39:28.608Z,47.35
2023-04-06T05:41:56.202Z,54.22
2023-04-06T05:44:23.114Z,46.58
2023-04-06T05:46:50.099Z,36.25
2023-04-06T05:49:17.250Z,24.83
2023-04-06T05:52:17.168Z,26.60
2023-04-06T05:55:35.969Z,19.52
2023-04-06T05:58:08.183Z,28.73
2023-04-06T06:00:36.994Z,26.42
2023-04-06T06:03:13.624Z,23.67
2023-04-06T06:05:42.973Z,18.60
2023-04-06T06:08:15.238Z,20.42
2023-04-06T06:10:42.256Z,26.75
2023-04-06T06:13:19.029Z,33.42
2023-04-06T06:15:46.513Z,39.63
2023-04-06T06:18:18.615Z,44.60
2023-04-06T06:20:53.958Z,38.63
2023-04-06T06:25:50.649Z,34.93
2023-04-06T06:28:26.404Z,29.87
2023-04-06T06:30:53.545Z,22.20
2023-04-06T06:33:20.882Z,16.80
2023-04-06T06:35:47.824Z,5.57
2023-04-06T06:38:14.697Z,5.83
2023-04-06T06:40:42.275Z,7.93
2023-04-06T06:43:09.243Z,6.20
2023-04-06T06:45:36.518Z,5.77
2023-04-06T06:48:03.736Z,5.90
2023-04-06T06:50:30.926Z,7.33
2023-04-06T06:52:57.937Z,5.93
2023-04-06T06:55:24.859Z,6.00
2023-04-06T06:57:51.823Z,5.70
2023-04-06T07:00:19.069Z,6.30
2023-04-06T07:02:46.077Z,5.50
2023-04-06T07:05:27.028Z,7.30
2023-04-06T07:07:56.290Z,6.50
2023-04-06T07:10:23.444Z,7.80
2023-04-06T07:12:50.455Z,6.10
2023-04-06T07:15:18.205Z,6.33
2023-04-06T07:17:48.275Z,11.00
2023-04-06T07:20:15.705Z,6.07
2023-04-06T07:22:49.338Z,5.47
2023-04-06T07:25:16.393Z,10.87
2023-04-06T07:27:43.338Z,7.77
2023-04-06T07:30:10.655Z,6.83
2023-04-06T07:32:37.550Z,8.57
2023-04-06T07:35:05.102Z,7.83
2023-04-06T07:37:35.490Z,8.97
2023-04-06T07:40:02.666Z,6.73
2023-04-06T07:42:29.684Z,9.97
2023-04-06T07:44:56.621Z,9.90
2023-04-06T07:47:24.827Z,6.13
2023-04-06T07:49:51.853Z,8.77
2023-04-06T07:52:18.754Z,9.93
2023-04-06T07:54:45.687Z,7.77
2023-04-06T07:57:12.717Z,10.77
2023-04-06T07:59:39.676Z,13.63
2023-04-06T08:02:06.793Z,8.50
2023-04-06T08:04:33.755Z,10.23
2023-04-06T08:07:00.787Z,11.67
2023-04-06T08:09:28.186Z,11.87
2023-04-06T08:11:55.239Z,11.00
2023-04-06T08:14:22.120Z,9.43
2023-04-06T08:16:49.126Z,10.73
2023-04-06T08:19:18.219Z,12.90
2023-04-06T08:21:45.329Z,9.33
2023-04-06T08:24:12.759Z,13.33
2023-04-06T08:26:39.698Z,10.93
2023-04-06T08:29:09.860Z,13.03
2023-04-06T08:31:37.603Z,8.43
2023-04-06T08:34:05.951Z,9.93
2023-04-06T08:36:32.903Z,72.30
2023-04-06T08:39:01.335Z,12.67
2023-04-06T08:41:29.000Z,48.87
2023-04-06T08:44:02.361Z,43.83
2023-04-06T08:46:31.501Z,13.40
2023-04-06T08:48:59.964Z,15.07
2023-04-06T08:51:27.876Z,10.93
2023-04-06T08:54:00.428Z,9.67
2023-04-06T08:56:29.133Z,12.90
2023-04-06T08:58:57.438Z,20.67
2023-04-06T09:01:27.341Z,11.23
2023-04-06T09:03:59.454Z,8.63
2023-04-06T09:06:28.114Z,9.87
2023-04-06T09:08:56.221Z,17.37
2023-04-06T09:11:23.567Z,12.57
2023-04-06T09:13:55.402Z,49.97
2023-04-06T09:16:24.202Z,47.50
2023-04-06T09:18:51.670Z,42.53
2023-04-06T09:21:21.546Z,11.10
2023-04-06T09:24:01.132Z,10.37
2023-04-06T09:26:28.436Z,6.90
2023-04-06T09:28:57.409Z,16.23
2023-04-06T09:31:31.141Z,174.67
2023-04-06T09:33:58.560Z,16.57
2023-04-06T09:36:36.575Z,31.90
2023-04-06T09:39:04.750Z,19.37
2023-04-06T09:41:37.976Z,8.20
2023-04-06T09:44:12.158Z,8.77
2023-04-06T09:46:58.752Z,6.40
2023-04-06T09:49:32.577Z,11.67
2023-04-06T09:52:08.396Z,6.73
2023-04-06T09:54:37.354Z,5.97
2023-04-06T09:57:23.008Z,6.67
2023-04-06T10:00:12.185Z,6.95
2023-04-06T10:03:16.801Z,5.27
2023-04-06T10:05:48.065Z,6.17
2023-04-06T10:08:16.373Z,4.47
2023-04-06T10:10:44.590Z,7.70
2023-04-06T10:13:12.806Z,12.57
2023-04-06T10:15:41.462Z,31.87
2023-04-06T10:18:09.303Z,6.50
2023-04-06T10:20:53.133Z,10.13
2023-04-06T10:23:36.099Z,10.50
2023-04-06T10:26:04.378Z,6.97
2023-04-06T10:28:37.186Z,4.73
2023-04-06T10:31:07.593Z,6.50
2023-04-06T10:33:35.685Z,6.70
2023-04-06T10:36:16.712Z,6.10
2023-04-06T10:38:43.792Z,5.93
2023-04-06T10:41:12.939Z,8.77
2023-04-06T10:43:43.153Z,8.83
2023-04-06T10:46:11.604Z,6.80
2023-04-06T10:48:49.112Z,11.43
2023-04-06T10:51:18.098Z,7.53
2023-04-06T10:53:47.901Z,8.40
2023-04-06T10:56:19.146Z,7.70
2023-04-06T10:58:50.355Z,7.87
2023-04-06T11:01:18.677Z,7.67
2023-04-06T11:03:50.015Z,7.30
2023-04-06T11:06:24.844Z,7.80
2023-04-06T11:08:52.608Z,8.25
2023-04-06T11:11:22.120Z,7.17
2023-04-06T11:13:57.990Z,7.33
2023-04-06T11:16:30.816Z,6.37
2023-04-06T11:19:03.449Z,6.87
2023-04-06T11:21:37.969Z,6.63
2023-04-06T11:24:06.069Z,9.80
2023-04-06T11:26:37.623Z,8.87
2023-04-06T11:29:04.981Z,8.03
2023-04-06T11:31:32.292Z,8.13
2023-04-06T11:33:59.412Z,7.47
2023-04-06T11:36:31.055Z,7.83
2023-04-06T11:38:58.136Z,9.90
2023-04-06T11:41:27.139Z,6.73
2023-04-06T11:43:56.899Z,8.00
2023-04-06T11:46:23.909Z,12.77
2023-04-06T11:48:50.945Z,6.77
2023-04-06T11:51:28.008Z,6.23
2023-04-06T11:53:55.731Z,9.03
2023-04-06T11:56:31.147Z,4.77
2023-04-06T12:01:34.225Z,7.23
2023-04-06T12:04:04.370Z,4.90
2023-04-06T12:06:31.772Z,6.03
2023-04-06T12:08:59.583Z,6.90
2023-04-06T12:11:26.570Z,6.03
2023-04-06T12:13:54.134Z,5.43
2023-04-06T12:16:21.453Z,3.77
2023-04-06T12:18:48.499Z,5.40
2023-04-06T12:21:15.577Z,7.40
2023-04-06T12:23:42.549Z,6.07
2023-04-06T12:26:13.201Z,6.53
2023-04-06T12:28:41.185Z,4.33
2023-04-06T12:31:09.046Z,6.97
2023-04-06T12:33:35.935Z,7.10
2023-04-06T12:36:02.852Z,5.17
2023-04-06T12:38:31.487Z,4.93
2023-04-06T12:40:58.338Z,3.73
2023-04-06T12:43:25.738Z,6.70
2023-04-06T12:45:52.627Z,3.77
2023-04-06T12:48:19.598Z,3.60
2023-04-06T12:50:54.833Z,5.43
2023-04-06T12:53:21.817Z,4.88
2023-04-06T12:55:48.648Z,4.07
2023-04-06T12:58:16.202Z,4.93
2023-04-06T13:00:43.132Z,4.63
2023-04-06T13:03:10.313Z,4.37
2023-04-06T13:05:37.222Z,5.70
2023-04-06T13:08:04.209Z,2.93
2023-04-06T13:10:31.090Z,4.60
2023-04-06T13:12:58.021Z,3.17
2023-04-06T13:15:24.905Z,6.03
2023-04-06T13:17:52.943Z,3.47
2023-04-06T13:20:20.885Z,3.10
2023-04-06T13:22:47.750Z,4.27
2023-04-06T13:25:14.736Z,3.33
2023-04-06T13:27:41.634Z,2.90
2023-04-06T13:30:09.541Z,6.93
2023-04-06T13:32:37.596Z,4.90
2023-04-06T13:35:04.997Z,3.30
2023-04-06T13:37:32.003Z,3.53
2023-04-06T13:39:59.106Z,4.20
2023-04-06T13:42:26.351Z,2.77
2023-04-06T13:44:54.068Z,4.83
2023-04-06T13:47:21.869Z,7.07
2023-04-06T13:49:51.967Z,7.63
2023-04-06T13:52:19.562Z,2.90
2023-04-06T13:54:47.037Z,2.00
2023-04-06T13:57:14.206Z,4.37
2023-04-06T13:59:41.269Z,4.70
2023-04-06T14:02:11.107Z,5.93
2023-04-06T14:04:38.416Z,4.47
2023-04-06T14:07:08.277Z,4.70
2023-04-06T14:09:35.617Z,9.23
2023-04-06T14:12:02.582Z,1.93
2023-04-06T14:14:29.479Z,2.70
2023-04-06T14:16:56.752Z,4.37
2023-04-06T14:19:23.697Z,5.47
2023-04-06T14:21:50.716Z,2.20
2023-04-06T14:24:20.044Z,2.80
2023-04-06T14:26:46.923Z,2.67
2023-04-06T14:29:13.755Z,2.70
2023-04-06T14:31:41.174Z,3.10
2023-04-06T14:34:08.087Z,3.33
2023-04-06T14:36:37.557Z,3.13
2023-04-06T14:39:08.607Z,2.60
2023-04-06T14:41:35.958Z,5.33
2023-04-06T14:44:03.019Z,3.30
2023-04-06T14:46:29.936Z,2.50
2023-04-06T14:48:58.723Z,3.67
2023-04-06T14:51:28.232Z,7.87
2023-04-06T14:53:55.892Z,2.80
2023-04-06T14:56:24.246Z,7.67
2023-04-06T14:58:52.019Z,4.57
2023-04-06T15:01:21.975Z,4.70
2023-04-06T15:03:49.636Z,6.83
2023-04-06T15:06:18.704Z,8.17
2023-04-06T15:08:46.320Z,9.70
2023-04-06T15:11:13.539Z,6.90
2023-04-06T15:13:41.737Z,3.30
2023-04-06T15:16:09.221Z,3.77
2023-04-06T15:18:36.545Z,6.00
2023-04-06T15:21:03.745Z,6.40
2023-04-06T15:23:31.327Z,14.00
2023-04-06T15:25:58.824Z,5.50
2023-04-06T15:28:25.929Z,3.67
2023-04-06T15:30:52.908Z,8.77
2023-04-06T15:33:21.267Z,9.83
2023-04-06T15:35:48.398Z,12.87
2023-04-06T15:38:15.893Z,10.40
2023-04-06T15:40:48.321Z,8.27
2023-04-06T15:43:16.026Z,7.60
2023-04-06T15:45:43.077Z,9.90
2023-04-06T15:48:10.033Z,6.93
2023-04-06T15:50:37.554Z,6.93
2023-04-06T15:53:04.629Z,5.90
2023-04-06T15:55:31.550Z,4.87
2023-04-06T15:57:58.457Z,6.67
2023-04-06T16:00:25.842Z,4.37
2023-04-06T16:02:52.934Z,5.60
2023-04-06T16:05:20.113Z,3.93
2023-04-06T16:07:46.987Z,3.90
2023-04-06T16:10:13.963Z,6.20
2023-04-06T16:12:42.602Z,4.70
2023-04-06T16:15:10.054Z,3.80
2023-04-06T16:17:37.077Z,4.53
2023-04-06T16:20:04.901Z,4.13
2023-04-06T16:22:31.988Z,5.60
2023-04-06T16:24:58.893Z,6.40
2023-04-06T16:27:25.872Z,5.23
2023-04-06T16:29:52.812Z,8.33
2023-04-06T16:32:19.678Z,8.63
2023-04-06T16:34:47.326Z,8.90
2023-04-06T16:37:14.238Z,6.40
2023-04-06T16:39:41.283Z,8.40
2023-04-06T16:42:08.109Z,6.30
2023-04-06T16:44:35.335Z,6.57
2023-04-06T16:47:02.322Z,10.40
2023-04-06T16:49:29.160Z,11.80
2023-04-06T16:51:56.600Z,6.20
2023-04-06T16:54:23.567Z,9.17
2023-04-06T16:56:50.561Z,7.10
2023-04-06T16:59:17.432Z,7.23
2023-04-06T17:01:44.418Z,5.83
2023-04-06T17:04:11.536Z,6.63
2023-04-06T17:06:38.569Z,6.67
2023-04-06T17:09:05.510Z,8.43
2023-04-06T17:11:45.673Z,7.20
2023-04-06T17:14:13.688Z,10.07
2023-04-06T17:16:40.843Z,7.17
2023-04-06T17:19:08.119Z,4.67
2023-04-06T17:21:35.281Z,6.73
2023-04-06T17:24:02.214Z,5.20
2023-04-06T17:26:29.099Z,6.83
2023-04-06T17:28:56.000Z,5.77
2023-04-06T17:31:22.998Z,6.07
2023-04-06T17:33:50.517Z,8.17
2023-04-06T17:36:17.830Z,8.20
2023-04-06T17:38:46.717Z,10.43
2023-04-06T17:41:14.374Z,5.67
2023-04-06T17:43:41.374Z,9.80
2023-04-06T17:46:08.381Z,7.60
2023-04-06T17:48:35.567Z,8.43
2023-04-06T17:51:02.866Z,8.67
2023-04-06T17:53:34.483Z,10.43
2023-04-06T17:56:05.545Z,5.60
2023-04-06T17:58:32.535Z,8.70
2023-04-06T18:00:59.469Z,10.37
2023-04-06T18:03:26.476Z,9.13
2023-04-06T18:05:53.403Z,7.77
2023-04-06T18:08:21.750Z,6.80
2023-04-06T18:10:49.098Z,10.10
2023-04-06T18:13:16.248Z,7.43
2023-04-06T18:15:43.210Z,9.23
2023-04-06T18:18:10.363Z,6.13
2023-04-06T18:20:41.455Z,8.73
2023-04-06T18:23:08.471Z,7.40
2023-04-06T18:25:47.617Z,7.23
2023-04-06T18:28:14.572Z,8.73
2023-04-06T18:30:41.931Z,9.57
2023-04-06T18:33:09.014Z,7.40
2023-04-06T18:35:36.120Z,10.20
2023-04-06T18:38:03.213Z,9.30
2023-04-06T18:40:35.905Z,8.90
2023-04-06T18:43:04.697Z,7.07
2023-04-06T18:45:36.288Z,8.03
2023-04-06T18:48:03.499Z,5.60
2023-04-06T18:50:30.540Z,7.53
2023-04-06T18:52:57.515Z,8.47
2023-04-06T18:55:25.570Z,9.97
2023-04-06T18:57:52.728Z,9.43
2023-04-06T19:00:19.850Z,9.33
2023-04-06T19:02:46.926Z,13.33
2023-04-06T19:05:14.428Z,8.67
2023-04-06T19:07:42.471Z,9.90
2023-04-06T19:10:10.179Z,8.70
2023-04-06T19:12:38.944Z,8.53
2023-04-06T19:15:08.213Z,9.30
2023-04-06T19:17:35.560Z,9.83
2023-04-06T19:20:02.838Z,7.80
2023-04-06T19:22:29.796Z,9.00
2023-04-06T19:24:56.914Z,7.33
2023-04-06T19:27:23.908Z,6.57
2023-04-06T19:29:51.007Z,10.03
2023-04-06T19:32:18.284Z,12.13
2023-04-06T19:34:45.308Z,15.20
2023-04-06T19:37:12.260Z,42.57
2023-04-06T19:39:40.098Z,16.57
2023-04-06T19:42:07.149Z,39.67
2023-04-06T19:44:34.285Z,21.53
2023-04-06T19:47:01.265Z,15.50
2023-04-06T19:49:28.559Z,11.03
2023-04-06T19:51:55.883Z,7.97
2023-04-06T19:54:24.401Z,6.47
2023-04-06T19:56:51.817Z,7.40
2023-04-06T19:59:21.393Z,11.80
2023-04-06T20:01:48.476Z,11.60
2023-04-06T20:04:15.722Z,11.30
2023-04-06T20:06:42.691Z,7.73
2023-04-06T20:09:11.635Z,9.07
2023-04-06T20:11:39.051Z,10.53
2023-04-06T20:14:06.335Z,8.30
2023-04-06T20:16:33.436Z,9.97
2023-04-06T20:19:00.511Z,12.43
2023-04-06T20:21:29.793Z,11.03
2023-04-06T20:23:56.672Z,9.53
2023-04-06T20:26:23.543Z,10.67
2023-04-06T20:28:50.408Z,9.47
2023-04-06T20:31:17.263Z,8.30
2023-04-06T20:33:44.182Z,8.67
2023-04-06T20:36:12.512Z,8.23
2023-04-06T20:38:40.578Z,10.03
2023-04-06T20:41:08.171Z,8.00
2023-04-06T20:43:35.696Z,12.47
2023-04-06T20:46:03.147Z,9.60
2023-04-06T20:48:33.461Z,6.70
2023-04-06T20:51:03.201Z,11.07
2023-04-06T20:53:30.155Z,9.90
2023-04-06T20:55:58.208Z,6.23
2023-04-06T20:58:25.128Z,11.67
2023-04-06T21:00:52.202Z,11.43
2023-04-06T21:03:19.414Z,8.30
2023-04-06T21:05:54.508Z,8.80
2023-04-06T21:08:21.350Z,8.38
2023-04-06T21:10:48.222Z,9.40
2023-04-06T21:13:15.147Z,8.20
2023-04-06T21:15:42.062Z,9.00
2023-04-06T21:18:09.227Z,8.90
2023-04-06T21:20:37.125Z,8.87
2023-04-06T21:23:04.119Z,10.37
2023-04-06T21:25:31.078Z,13.37
2023-04-06T21:27:58.100Z,8.63
2023-04-06T21:30:25.042Z,9.53
2023-04-06T21:32:51.903Z,7.53
2023-04-06T21:35:18.774Z,8.63
2023-04-06T21:37:45.614Z,9.00
2023-04-06T21:40:13.499Z,8.43
2023-04-06T21:42:40.600Z,11.83
2023-04-06T21:45:08.120Z,10.53
2023-04-06T21:47:35.938Z,11.33
2023-04-06T21:50:03.570Z,7.33
2023-04-06T21:52:30.764Z,11.37
2023-04-06T21:54:57.656Z,8.13
2023-04-06T21:57:24.946Z,6.80
2023-04-06T21:59:51.834Z,6.47
2023-04-06T22:02:18.835Z,5.93
2023-04-06T22:04:46.688Z,7.47
2023-04-06T22:07:15.086Z,8.77
2023-04-06T22:09:41.990Z,7.13
2023-04-06T22:12:08.843Z,7.27
2023-04-06T22:14:36.470Z,5.77
2023-04-06T22:17:03.393Z,9.90
2023-04-06T22:19:30.275Z,6.93
2023-04-06T22:21:57.413Z,7.50
2023-04-06T22:24:24.336Z,7.70
2023-04-06T22:26:51.197Z,9.20
2023-04-06T22:29:18.022Z,7.37
2023-04-06T22:31:46.772Z,9.67
2023-04-06T22:34:14.223Z,8.80
2023-04-06T22:36:41.431Z,11.23
2023-04-06T22:39:08.255Z,7.13
2023-04-06T22:41:35.095Z,8.13
2023-04-06T22:44:02.179Z,12.07
2023-04-06T22:46:29.149Z,9.40
2023-04-06T22:48:56.019Z,9.00
2023-04-06T22:51:22.897Z,7.60
2023-04-06T22:53:49.819Z,9.67
2023-04-06T22:56:16.772Z,10.00
2023-04-06T22:58:43.631Z,9.80
2023-04-06T23:01:10.669Z,9.47
2023-04-06T23:03:37.560Z,8.57
2023-04-06T23:06:04.768Z,8.63
2023-04-06T23:08:31.683Z,10.40
2023-04-06T23:10:58.803Z,8.20
2023-04-06T23:13:25.879Z,13.07
2023-04-06T23:15:52.729Z,9.23
2023-04-06T23:18:19.698Z,9.07
2023-04-06T23:20:46.693Z,13.30
2023-04-06T23:23:13.591Z,11.37
2023-04-06T23:25:40.721Z,10.40
2023-04-06T23:28:07.720Z,9.50
2023-04-06T23:30:34.629Z,11.53
2023-04-06T23:33:01.591Z,12.00
2023-04-06T23:35:28.456Z,11.63
2023-04-06T23:37:55.630Z,24.73
2023-04-06T23:40:24.961Z,9.27
2023-04-06T23:42:51.854Z,10.43
2023-04-06T23:45:18.880Z,14.07
2023-04-06T23:47:46.174Z,18.93
2023-04-06T23:50:13.058Z,10.63
2023-04-06T23:52:39.857Z,50.27
2023-04-06T23:55:07.255Z,22.33
2023-04-06T23:57:34.114Z,9.10
